PWSweather.com
Personal Weather Stations
Station Observations
SHAHALMS1
Eftra, Falkenberg, HA

EftraFalkenberg, HA

Lat: 56.85, Lon: 12.65

Elevation: 140

Station Type:

http://hem.passagen.se/risarp101

High Low Average
Temperature 70.7°F21.5°C 58.6°F14.8°C 62.7°F17.1°C
Dew Point 64.4°F18.0°C 55.7°F13.2°C 59.3°F15.2°C
Winds 9.3 mph 15.0 kmh Calm Calm 2.0 mph SE3.2 kmh SE
Wind Gusts 14.0 mph22.5 kmh -- 5.0 mph8.0 kmh
Humidity 95% 71% 89%
Pressure 29.83 in1010.2 mb 29.74 in1007.1 mb -
Precipitation 0.43 in10.9 mm - -
Hour Temp Dew Point Humidity Winds Wind Gusts Pressure Precip Precip Rate Daily Precip Total
12:00 AM 59.7°F15.4°C 58.0°F14.4°C 94% 0.9 mph E1.4 kmh E 2.1 mph3.4 kmh 29.83 in1010.2 mb 0.00 in0.0 mm 0.00 in0.0 mm 0.00 in0.0 mm
12:10 AM 59.9°F15.5°C 58.2°F14.6°C 94% 1.5 mph E2.4 kmh E 2.1 mph3.4 kmh 29.83 in1010.2 mb 0.00 in0.0 mm 0.00 in0.0 mm 0.00 in0.0 mm
12:20 AM 59.9°F15.5°C 58.2°F14.6°C 94% 1.7 mph E2.7 kmh E 5.7 mph9.2 kmh 29.83 in1010.2 mb 0.00 in0.0 mm 0.00 in0.0 mm 0.00 in0.0 mm
12:30 AM 59.9°F15.5°C 58.2°F14.6°C 94% 0.4 mph E0.6 kmh E 5.0 mph8.0 kmh 29.80 in1009.1 mb 0.00 in0.0 mm 0.00 in0.0 mm 0.00 in0.0 mm
12:40 AM 59.9°F15.5°C 58.2°F14.6°C 94% Calm Calm -- 29.83 in1010.2 mb 0.00 in0.0 mm 0.00 in0.0 mm 0.00 in0.0 mm
12:50 AM 59.9°F15.5°C 58.2°F14.6°C 94% 1.5 mph E2.4 kmh E 3.9 mph6.3 kmh 29.83 in1010.2 mb 0.00 in0.0 mm 0.00 in0.0 mm 0.00 in0.0 mm
01:00 AM 59.9°F15.5°C 58.2°F14.6°C 94% 0.7 mph E1.1 kmh E 3.9 mph6.3 kmh 29.83 in1010.2 mb 0.00 in0.0 mm 0.00 in0.0 mm 0.00 in0.0 mm
01:10 AM 60.1°F15.6°C 58.3°F14.6°C 94% 0.7 mph NE1.1 kmh NE 3.2 mph5.1 kmh 29.83 in1010.2 mb 0.00 in0.0 mm 0.00 in0.0 mm 0.00 in0.0 mm
01:20 AM 60.1°F15.6°C 58.3°F14.6°C 94% 0.3 mph E0.5 kmh E 3.2 mph5.1 kmh 29.83 in1010.2 mb 0.00 in0.0 mm 0.00 in0.0 mm 0.00 in0.0 mm
01:30 AM 60.1°F15.6°C 58.3°F14.6°C 94% 0.3 mph E0.5 kmh E 3.2 mph5.1 kmh 29.83 in1010.2 mb 0.00 in0.0 mm 0.00 in0.0 mm 0.00 in0.0 mm
01:40 AM 60.1°F15.6°C 58.3°F14.6°C 94% 1.9 mph ENE3.1 kmh ENE 4.7 mph7.6 kmh 29.83 in1010.2 mb 0.00 in0.0 mm 0.00 in0.0 mm 0.00 in0.0 mm
01:50 AM 60.1°F15.6°C 58.3°F14.6°C 94% 3.1 mph ENE5.0 kmh ENE 6.4 mph10.3 kmh 29.83 in1010.2 mb 0.00 in0.0 mm 0.00 in0.0 mm 0.00 in0.0 mm
02:00 AM 60.1°F15.6°C 58.3°F14.6°C 94% 0.4 mph ENE0.6 kmh ENE 2.1 mph3.4 kmh 29.80 in1009.1 mb 0.00 in0.0 mm 0.00 in0.0 mm 0.00 in0.0 mm
02:10 AM 60.1°F15.6°C 58.3°F14.6°C 94% 0.2 mph E0.3 kmh E 1.4 mph2.3 kmh 29.83 in1010.2 mb 0.00 in0.0 mm 0.00 in0.0 mm 0.00 in0.0 mm
02:20 AM 60.1°F15.6°C 58.3°F14.6°C 94% 0.4 mph ENE0.6 kmh ENE 2.5 mph4.0 kmh 29.83 in1010.2 mb 0.00 in0.0 mm 0.00 in0.0 mm 0.00 in0.0 mm
02:30 AM 60.1°F15.6°C 58.3°F14.6°C 94% 1.1 mph ENE1.8 kmh ENE 6.1 mph9.8 kmh 29.83 in1010.2 mb 0.00 in0.0 mm 0.00 in0.0 mm 0.00 in0.0 mm
02:40 AM 60.1°F15.6°C 58.3°F14.6°C 94% 0.9 mph E1.4 kmh E 3.9 mph6.3 kmh 29.83 in1010.2 mb 0.00 in0.0 mm 0.00 in0.0 mm 0.00 in0.0 mm
02:50 AM 60.1°F15.6°C 58.3°F14.6°C 94% 3.0 mph E4.8 kmh E 5.4 mph8.7 kmh 29.83 in1010.2 mb 0.05 in1.3 mm 0.30 in7.6 mm 0.05 in1.3 mm
03:00 AM 60.1°F15.6°C 58.3°F14.6°C 94% 0.9 mph E1.4 kmh E 4.7 mph7.6 kmh 29.83 in1010.2 mb 0.05 in1.3 mm 0.00 in0.0 mm 0.05 in1.3 mm
03:10 AM 59.9°F15.5°C 58.2°F14.6°C 94% Calm Calm -- 29.80 in1009.1 mb 0.05 in1.3 mm 0.00 in0.0 mm 0.05 in1.3 mm
03:20 AM 59.9°F15.5°C 58.2°F14.6°C 94% 0.1 mph ENE0.2 kmh ENE 3.2 mph5.1 kmh 29.80 in1009.1 mb 0.05 in1.3 mm 0.00 in0.0 mm 0.05 in1.3 mm
03:30 AM 59.9°F15.5°C 58.2°F14.6°C 94% 0.6 mph ENE1.0 kmh ENE 4.7 mph7.6 kmh 29.80 in1009.1 mb 0.09 in2.3 mm 0.24 in6.1 mm 0.09 in2.3 mm
03:40 AM 59.7°F15.4°C 58.0°F14.4°C 94% 0.1 mph ENE0.2 kmh ENE 1.4 mph2.3 kmh 29.77 in1008.1 mb 0.09 in2.3 mm 0.00 in0.0 mm 0.09 in2.3 mm
03:50 AM 59.7°F15.4°C 58.0°F14.4°C 94% Calm Calm -- 29.77 in1008.1 mb 0.10 in2.5 mm 0.06 in1.5 mm 0.15 in3.8 mm
04:00 AM 59.7°F15.4°C 58.0°F14.4°C 94% 0.1 mph ENE0.2 kmh ENE 2.1 mph3.4 kmh 29.80 in1009.1 mb 0.10 in2.5 mm 0.00 in0.0 mm 0.15 in3.8 mm
04:10 AM 59.5°F15.3°C 57.8°F14.3°C 94% Calm Calm -- 29.77 in1008.1 mb 0.10 in2.5 mm 0.00 in0.0 mm 0.15 in3.8 mm
04:20 AM 59.5°F15.3°C 57.8°F14.3°C 94% 0.8 mph N1.3 kmh N 5.4 mph8.7 kmh 29.77 in1008.1 mb 0.10 in2.5 mm 0.00 in0.0 mm 0.15 in3.8 mm
04:30 AM 59.5°F15.3°C 57.8°F14.3°C 94% Calm Calm -- 29.77 in1008.1 mb 0.06 in1.5 mm 0.00 in0.0 mm 0.15 in3.8 mm
04:40 AM 59.4°F15.2°C 57.6°F14.2°C 94% Calm Calm -- 29.77 in1008.1 mb 0.10 in2.5 mm 0.24 in6.1 mm 0.20 in5.1 mm
04:50 AM 59.4°F15.2°C 57.6°F14.2°C 94% 0.2 mph N0.3 kmh N 3.2 mph5.1 kmh 29.77 in1008.1 mb 0.05 in1.3 mm 0.00 in0.0 mm 0.20 in5.1 mm
05:00 AM 59.4°F15.2°C 57.6°F14.2°C 94% 0.1 mph N0.2 kmh N 1.8 mph2.9 kmh 29.77 in1008.1 mb 0.05 in1.3 mm 0.00 in0.0 mm 0.20 in5.1 mm
05:10 AM 59.4°F15.2°C 57.6°F14.2°C 94% Calm Calm -- 29.80 in1009.1 mb 0.05 in1.3 mm 0.00 in0.0 mm 0.20 in5.1 mm
05:20 AM 59.2°F15.1°C 57.5°F14.2°C 94% 0.6 mph N1.0 kmh N 4.3 mph6.9 kmh 29.80 in1009.1 mb 0.05 in1.3 mm 0.00 in0.0 mm 0.20 in5.1 mm
05:30 AM 59.2°F15.1°C 57.5°F14.2°C 94% Calm Calm -- 29.77 in1008.1 mb 0.05 in1.3 mm 0.00 in0.0 mm 0.20 in5.1 mm
05:40 AM 59.2°F15.1°C 57.5°F14.2°C 94% 0.3 mph N0.5 kmh N 3.6 mph5.8 kmh 29.77 in1008.1 mb 0.00 in0.0 mm 0.00 in0.0 mm 0.20 in5.1 mm
05:50 AM 59.2°F15.1°C 57.5°F14.2°C 94% Calm Calm -- 29.77 in1008.1 mb 0.00 in0.0 mm 0.00 in0.0 mm 0.20 in5.1 mm
06:00 AM 59.4°F15.2°C 57.9°F14.4°C 95% Calm Calm -- 29.77 in1008.1 mb 0.00 in0.0 mm 0.00 in0.0 mm 0.20 in5.1 mm
06:10 AM 59.4°F15.2°C 57.9°F14.4°C 95% Calm Calm -- 29.77 in1008.1 mb 0.00 in0.0 mm 0.00 in0.0 mm 0.20 in5.1 mm
06:20 AM 59.5°F15.3°C 58.1°F14.5°C 95% 1.0 mph N1.6 kmh N 4.3 mph6.9 kmh 29.77 in1008.1 mb 0.00 in0.0 mm 0.00 in0.0 mm 0.20 in5.1 mm
06:30 AM 59.5°F15.3°C 58.1°F14.5°C 95% 2.8 mph N4.5 kmh N 6.4 mph10.3 kmh 29.77 in1008.1 mb 0.00 in0.0 mm 0.00 in0.0 mm 0.20 in5.1 mm
06:40 AM 59.5°F15.3°C 58.1°F14.5°C 95% 3.7 mph N6.0 kmh N 7.9 mph12.7 kmh 29.77 in1008.1 mb 0.00 in0.0 mm 0.00 in0.0 mm 0.20 in5.1 mm
06:50 AM 59.5°F15.3°C 58.1°F14.5°C 95% Calm Calm -- 29.77 in1008.1 mb 0.00 in0.0 mm 0.00 in0.0 mm 0.20 in5.1 mm
07:00 AM 59.7°F15.4°C 58.3°F14.6°C 95% Calm Calm -- 29.74 in1007.1 mb 0.00 in0.0 mm 0.00 in0.0 mm 0.20 in5.1 mm
07:10 AM 59.9°F15.5°C 58.5°F14.7°C 95% 0.4 mph N0.6 kmh N 3.6 mph5.8 kmh 29.74 in1007.1 mb 0.00 in0.0 mm 0.00 in0.0 mm 0.20 in5.1 mm
07:20 AM 60.1°F15.6°C 58.6°F14.8°C 95% Calm Calm 1.4 mph2.3 kmh 29.74 in1007.1 mb 0.00 in0.0 mm 0.00 in0.0 mm 0.20 in5.1 mm
07:30 AM 60.3°F15.7°C 58.8°F14.9°C 95% 0.8 mph NE1.3 kmh NE 5.7 mph9.2 kmh 29.77 in1008.1 mb 0.00 in0.0 mm 0.00 in0.0 mm 0.20 in5.1 mm
07:40 AM 60.4°F15.8°C 59.0°F15.0°C 95% 0.6 mph NE1.0 kmh NE 4.7 mph7.6 kmh 29.77 in1008.1 mb 0.00 in0.0 mm 0.00 in0.0 mm 0.20 in5.1 mm
07:50 AM 60.6°F15.9°C 59.2°F15.1°C 95% 0.8 mph N1.3 kmh N 4.7 mph7.6 kmh 29.77 in1008.1 mb 0.00 in0.0 mm 0.00 in0.0 mm 0.20 in5.1 mm
08:00 AM 60.6°F15.9°C 59.2°F15.1°C 95% 0.5 mph NE0.8 kmh NE 3.6 mph5.8 kmh 29.74 in1007.1 mb 0.00 in0.0 mm 0.00 in0.0 mm 0.20 in5.1 mm
08:10 AM 60.8°F16.0°C 59.4°F15.2°C 95% 0.9 mph N1.4 kmh N 3.9 mph6.3 kmh 29.77 in1008.1 mb 0.00 in0.0 mm 0.00 in0.0 mm 0.20 in5.1 mm
08:20 AM 60.8°F16.0°C 59.4°F15.2°C 95% 1.2 mph N1.9 kmh N 5.7 mph9.2 kmh 29.77 in1008.1 mb 0.00 in0.0 mm 0.00 in0.0 mm 0.20 in5.1 mm
08:30 AM 61.0°F16.1°C 59.5°F15.3°C 95% 1.2 mph N1.9 kmh N 7.9 mph12.7 kmh 29.74 in1007.1 mb 0.00 in0.0 mm 0.00 in0.0 mm 0.20 in5.1 mm
08:40 AM 61.0°F16.1°C 59.5°F15.3°C 95% 1.0 mph N1.6 kmh N 6.1 mph9.8 kmh 29.80 in1009.1 mb 0.00 in0.0 mm 0.00 in0.0 mm 0.20 in5.1 mm
08:50 AM 61.0°F16.1°C 59.5°F15.3°C 95% 1.4 mph N2.3 kmh N 5.0 mph8.0 kmh 29.80 in1009.1 mb 0.00 in0.0 mm 0.00 in0.0 mm 0.20 in5.1 mm
09:00 AM 61.2°F16.2°C 59.7°F15.4°C 95% 0.9 mph NNW1.4 kmh NNW 5.4 mph8.7 kmh 29.80 in1009.1 mb 0.00 in0.0 mm 0.00 in0.0 mm 0.20 in5.1 mm
09:10 AM 61.3°F16.3°C 59.9°F15.5°C 95% 0.3 mph NW0.5 kmh NW 2.5 mph4.0 kmh 29.77 in1008.1 mb 0.00 in0.0 mm 0.00 in0.0 mm 0.20 in5.1 mm
09:20 AM 61.5°F16.4°C 60.1°F15.6°C 95% 0.1 mph NW0.2 kmh NW 2.1 mph3.4 kmh 29.77 in1008.1 mb 0.00 in0.0 mm 0.00 in0.0 mm 0.20 in5.1 mm
09:30 AM 61.7°F16.5°C 60.3°F15.7°C 95% 1.2 mph NNW1.9 kmh NNW 4.3 mph6.9 kmh 29.77 in1008.1 mb 0.00 in0.0 mm 0.00 in0.0 mm 0.20 in5.1 mm
09:40 AM 61.9°F16.6°C 60.4°F15.8°C 95% 1.7 mph NNW2.7 kmh NNW 4.7 mph7.6 kmh 29.77 in1008.1 mb 0.00 in0.0 mm 0.00 in0.0 mm 0.20 in5.1 mm
09:50 AM 62.1°F16.7°C 60.6°F15.9°C 95% 0.2 mph NW0.3 kmh NW 2.5 mph4.0 kmh 29.77 in1008.1 mb 0.00 in0.0 mm 0.00 in0.0 mm 0.20 in5.1 mm
10:00 AM 62.4°F16.9°C 61.0°F16.1°C 95% 0.1 mph NW0.2 kmh NW 1.8 mph2.9 kmh 29.77 in1008.1 mb 0.00 in0.0 mm 0.00 in0.0 mm 0.20 in5.1 mm
10:10 AM 62.6°F17.0°C 61.1°F16.2°C 95% 1.1 mph N1.8 kmh N 4.3 mph6.9 kmh 29.77 in1008.1 mb 0.00 in0.0 mm 0.00 in0.0 mm 0.20 in5.1 mm
10:20 AM 63.1°F17.3°C 61.7°F16.5°C 95% 0.8 mph N1.3 kmh N 6.1 mph9.8 kmh 29.77 in1008.1 mb 0.00 in0.0 mm 0.00 in0.0 mm 0.20 in5.1 mm
10:30 AM 63.7°F17.6°C 62.2°F16.8°C 95% 0.6 mph N1.0 kmh N 4.3 mph6.9 kmh 29.77 in1008.1 mb 0.00 in0.0 mm 0.00 in0.0 mm 0.20 in5.1 mm
10:40 AM 64.8°F18.2°C 63.3°F17.4°C 95% 0.3 mph NE0.5 kmh NE 2.1 mph3.4 kmh 29.77 in1008.1 mb 0.00 in0.0 mm 0.00 in0.0 mm 0.20 in5.1 mm
10:50 AM 65.8°F18.8°C 64.4°F18.0°C 95% 0.6 mph N1.0 kmh N 4.7 mph7.6 kmh 29.77 in1008.1 mb 0.00 in0.0 mm 0.00 in0.0 mm 0.20 in5.1 mm
11:00 AM 65.8°F18.8°C 64.1°F17.8°C 94% 1.6 mph N2.6 kmh N 4.7 mph7.6 kmh 29.74 in1007.1 mb 0.00 in0.0 mm 0.00 in0.0 mm 0.20 in5.1 mm
11:10 AM 66.4°F19.1°C 64.0°F17.8°C 92% 1.6 mph N2.6 kmh N 6.8 mph10.9 kmh 29.77 in1008.1 mb 0.00 in0.0 mm 0.00 in0.0 mm 0.20 in5.1 mm
11:20 AM 66.7°F19.3°C 64.0°F17.8°C 91% 0.2 mph N0.3 kmh N 3.9 mph6.3 kmh 29.77 in1008.1 mb 0.00 in0.0 mm 0.00 in0.0 mm 0.20 in5.1 mm
11:30 AM 66.9°F19.4°C 63.6°F17.6°C 89% Calm Calm -- 29.77 in1008.1 mb 0.00 in0.0 mm 0.00 in0.0 mm 0.20 in5.1 mm
11:40 AM 66.9°F19.4°C 63.2°F17.3°C 88% Calm Calm -- 29.77 in1008.1 mb 0.00 in0.0 mm 0.00 in0.0 mm 0.20 in5.1 mm
11:50 AM 66.9°F19.4°C 63.2°F17.3°C 88% Calm Calm -- 29.77 in1008.1 mb 0.00 in0.0 mm 0.00 in0.0 mm 0.20 in5.1 mm
12:00 PM 67.3°F19.6°C 63.3°F17.4°C 87% 1.0 mph N1.6 kmh N 2.5 mph4.0 kmh 29.77 in1008.1 mb 0.00 in0.0 mm 0.00 in0.0 mm 0.20 in5.1 mm
12:10 PM 67.8°F19.9°C 63.5°F17.5°C 86% 2.0 mph N3.2 kmh N 5.4 mph8.7 kmh 29.74 in1007.1 mb 0.00 in0.0 mm 0.00 in0.0 mm 0.20 in5.1 mm
12:20 PM 68.4°F20.2°C 64.0°F17.8°C 86% Calm Calm -- 29.74 in1007.1 mb 0.00 in0.0 mm 0.00 in0.0 mm 0.20 in5.1 mm
12:30 PM 68.5°F20.3°C 63.2°F17.3°C 83% 1.7 mph NE2.7 kmh NE 4.7 mph7.6 kmh 29.77 in1008.1 mb 0.00 in0.0 mm 0.00 in0.0 mm 0.20 in5.1 mm
12:40 PM 69.1°F20.6°C 63.7°F17.6°C 83% 3.2 mph ENE5.1 kmh ENE 4.7 mph7.6 kmh 29.77 in1008.1 mb 0.00 in0.0 mm 0.00 in0.0 mm 0.20 in5.1 mm
12:50 PM 69.1°F20.6°C 62.6°F17.0°C 80% 3.6 mph NNE5.8 kmh NNE 5.4 mph8.7 kmh 29.77 in1008.1 mb 0.00 in0.0 mm 0.00 in0.0 mm 0.20 in5.1 mm
01:00 PM 69.1°F20.6°C 61.6°F16.4°C 77% 2.1 mph N3.4 kmh N 6.4 mph10.3 kmh 29.77 in1008.1 mb 0.00 in0.0 mm 0.00 in0.0 mm 0.20 in5.1 mm
01:10 PM 69.4°F20.8°C 62.3°F16.8°C 78% 1.3 mph N2.1 kmh N 1.8 mph2.9 kmh 29.77 in1008.1 mb 0.00 in0.0 mm 0.00 in0.0 mm 0.20 in5.1 mm
01:20 PM 69.6°F20.9°C 62.1°F16.7°C 77% 2.4 mph N3.9 kmh N 4.3 mph6.9 kmh 29.77 in1008.1 mb 0.00 in0.0 mm 0.00 in0.0 mm 0.20 in5.1 mm
01:30 PM 69.8°F21.0°C 61.1°F16.2°C 74% 3.6 mph N5.8 kmh N 4.7 mph7.6 kmh 29.77 in1008.1 mb 0.00 in0.0 mm 0.00 in0.0 mm 0.20 in5.1 mm
01:40 PM 69.8°F21.0°C 61.1°F16.2°C 74% 3.8 mph N6.1 kmh N 4.7 mph7.6 kmh 29.77 in1008.1 mb 0.00 in0.0 mm 0.00 in0.0 mm 0.20 in5.1 mm
01:50 PM 70.2°F21.2°C 61.5°F16.4°C 74% 0.6 mph N1.0 kmh N 6.8 mph10.9 kmh 29.77 in1008.1 mb 0.00 in0.0 mm 0.00 in0.0 mm 0.20 in5.1 mm
02:00 PM 70.2°F21.2°C 61.1°F16.2°C 73% 5.1 mph N8.2 kmh N 6.8 mph10.9 kmh 29.77 in1008.1 mb 0.00 in0.0 mm 0.00 in0.0 mm 0.20 in5.1 mm
02:10 PM 70.0°F21.1°C 60.9°F16.1°C 73% 5.5 mph N8.9 kmh N 6.8 mph10.9 kmh 29.77 in1008.1 mb 0.00 in0.0 mm 0.00 in0.0 mm 0.20 in5.1 mm
02:20 PM 69.8°F21.0°C 60.0°F15.6°C 71% 5.5 mph N8.9 kmh N 6.8 mph10.9 kmh 29.77 in1008.1 mb 0.00 in0.0 mm 0.00 in0.0 mm 0.20 in5.1 mm
02:30 PM 70.0°F21.1°C 60.1°F15.6°C 71% 5.5 mph N8.9 kmh N 6.8 mph10.9 kmh 29.77 in1008.1 mb 0.00 in0.0 mm 0.00 in0.0 mm 0.20 in5.1 mm
02:40 PM 70.5°F21.4°C 61.1°F16.2°C 72% Calm Calm -- 29.77 in1008.1 mb 0.00 in0.0 mm 0.00 in0.0 mm 0.20 in5.1 mm
02:50 PM 70.7°F21.5°C 60.8°F16.0°C 71% Calm Calm -- 29.77 in1008.1 mb 0.00 in0.0 mm 0.00 in0.0 mm 0.20 in5.1 mm
03:00 PM 70.2°F21.2°C 60.3°F15.7°C 71% Calm Calm -- 29.77 in1008.1 mb 0.00 in0.0 mm 0.00 in0.0 mm 0.20 in5.1 mm
03:10 PM 69.4°F20.8°C 60.0°F15.6°C 72% Calm Calm -- 29.77 in1008.1 mb 0.00 in0.0 mm 0.00 in0.0 mm 0.20 in5.1 mm
03:20 PM 68.9°F20.5°C 60.3°F15.7°C 74% Calm Calm -- 29.77 in1008.1 mb 0.00 in0.0 mm 0.00 in0.0 mm 0.20 in5.1 mm
03:30 PM 68.5°F20.3°C 60.7°F15.9°C 76% Calm Calm -- 29.77 in1008.1 mb 0.00 in0.0 mm 0.00 in0.0 mm 0.20 in5.1 mm
03:40 PM 68.0°F20.0°C 60.2°F15.7°C 76% Calm Calm -- 29.77 in1008.1 mb 0.00 in0.0 mm 0.00 in0.0 mm 0.20 in5.1 mm
03:50 PM 67.8°F19.9°C 60.3°F15.7°C 77% Calm Calm -- 29.77 in1008.1 mb 0.00 in0.0 mm 0.00 in0.0 mm 0.20 in5.1 mm
04:00 PM 67.5°F19.7°C 60.0°F15.6°C 77% Calm Calm -- 29.74 in1007.1 mb 0.00 in0.0 mm 0.00 in0.0 mm 0.20 in5.1 mm
04:10 PM 67.1°F19.5°C 59.6°F15.3°C 77% Calm Calm -- 29.80 in1009.1 mb 0.00 in0.0 mm 0.00 in0.0 mm 0.20 in5.1 mm
04:20 PM 67.3°F19.6°C 60.2°F15.7°C 78% 4.4 mph W7.1 kmh W 5.4 mph8.7 kmh 29.80 in1009.1 mb 0.00 in0.0 mm 0.00 in0.0 mm 0.20 in5.1 mm
04:30 PM 67.5°F19.7°C 60.4°F15.8°C 78% 4.4 mph W7.1 kmh W 5.4 mph8.7 kmh 29.77 in1008.1 mb 0.00 in0.0 mm 0.00 in0.0 mm 0.20 in5.1 mm
04:40 PM 67.6°F19.8°C 60.5°F15.8°C 78% 3.2 mph NW5.1 kmh NW 3.9 mph6.3 kmh 29.77 in1008.1 mb 0.00 in0.0 mm 0.00 in0.0 mm 0.20 in5.1 mm
04:50 PM 67.6°F19.8°C 60.5°F15.8°C 78% 3.2 mph NW5.1 kmh NW 3.9 mph6.3 kmh 29.77 in1008.1 mb 0.00 in0.0 mm 0.00 in0.0 mm 0.20 in5.1 mm
05:00 PM 66.9°F19.4°C 59.8°F15.4°C 78% 3.2 mph NW5.1 kmh NW 3.9 mph6.3 kmh 29.77 in1008.1 mb 0.00 in0.0 mm 0.00 in0.0 mm 0.20 in5.1 mm
05:10 PM 66.2°F19.0°C 59.5°F15.3°C 79% 7.8 mph NW12.6 kmh NW 11.5 mph18.5 kmh 29.77 in1008.1 mb 0.00 in0.0 mm 0.00 in0.0 mm 0.20 in5.1 mm
05:20 PM 65.5°F18.6°C 59.5°F15.3°C 81% 9.3 mph NW15.0 kmh NW 11.5 mph18.5 kmh 29.77 in1008.1 mb 0.00 in0.0 mm 0.00 in0.0 mm 0.20 in5.1 mm
05:30 PM 65.1°F18.4°C 59.1°F15.1°C 81% 3.2 mph NW5.1 kmh NW 3.9 mph6.3 kmh 29.77 in1008.1 mb 0.00 in0.0 mm 0.00 in0.0 mm 0.20 in5.1 mm
05:40 PM 64.6°F18.1°C 58.3°F14.6°C 80% 6.0 mph NW9.7 kmh NW 8.9 mph14.3 kmh 29.77 in1008.1 mb 0.00 in0.0 mm 0.00 in0.0 mm 0.20 in5.1 mm
05:50 PM 64.4°F18.0°C 58.1°F14.5°C 80% 3.8 mph W6.1 kmh W 4.7 mph7.6 kmh 29.77 in1008.1 mb 0.00 in0.0 mm 0.00 in0.0 mm 0.20 in5.1 mm
06:00 PM 64.2°F17.9°C 58.3°F14.6°C 81% 3.8 mph W6.1 kmh W 4.7 mph7.6 kmh 29.80 in1009.1 mb 0.00 in0.0 mm 0.00 in0.0 mm 0.20 in5.1 mm
06:10 PM 63.9°F17.7°C 57.9°F14.4°C 81% Calm Calm -- 29.80 in1009.1 mb 0.00 in0.0 mm 0.00 in0.0 mm 0.20 in5.1 mm
06:20 PM 63.1°F17.3°C 56.9°F13.8°C 80% 1.7 mph E2.7 kmh E 2.1 mph3.4 kmh 29.80 in1009.1 mb 0.00 in0.0 mm 0.00 in0.0 mm 0.20 in5.1 mm
06:30 PM 62.6°F17.0°C 56.3°F13.5°C 80% 1.7 mph E2.7 kmh E 2.1 mph3.4 kmh 29.80 in1009.1 mb 0.00 in0.0 mm 0.00 in0.0 mm 0.20 in5.1 mm
06:40 PM 62.1°F16.7°C 56.5°F13.6°C 82% 2.5 mph S4.0 kmh S 7.9 mph12.7 kmh 29.80 in1009.1 mb 0.09 in2.3 mm 0.54 in13.7 mm 0.29 in7.4 mm
06:50 PM 61.3°F16.3°C 56.1°F13.4°C 83% 3.5 mph S5.6 kmh S 9.7 mph15.6 kmh 29.80 in1009.1 mb 0.19 in4.8 mm 0.60 in15.2 mm 0.38 in9.7 mm
07:00 PM 61.0°F16.1°C 56.4°F13.6°C 85% 4.5 mph S7.2 kmh S 10.4 mph16.7 kmh 29.80 in1009.1 mb 0.23 in5.8 mm 0.05 in1.3 mm 0.43 in10.9 mm
07:10 PM 60.8°F16.0°C 56.6°F13.7°C 86% 5.1 mph S8.2 kmh S 10.4 mph16.7 kmh 29.80 in1009.1 mb 0.23 in5.8 mm 0.00 in0.0 mm 0.43 in10.9 mm
07:20 PM 60.4°F15.8°C 56.6°F13.7°C 87% 4.9 mph S7.9 kmh S 12.2 mph19.6 kmh 29.80 in1009.1 mb 0.23 in5.8 mm 0.00 in0.0 mm 0.43 in10.9 mm
07:30 PM 60.1°F15.6°C 56.5°F13.6°C 88% 3.8 mph S6.1 kmh S 8.6 mph13.8 kmh 29.80 in1009.1 mb 0.23 in5.8 mm 0.00 in0.0 mm 0.43 in10.9 mm
07:40 PM 59.9°F15.5°C 56.3°F13.5°C 88% 3.8 mph S6.1 kmh S 7.9 mph12.7 kmh 29.83 in1010.2 mb 0.09 in2.3 mm 0.00 in0.0 mm 0.43 in10.9 mm
07:50 PM 59.5°F15.3°C 56.3°F13.5°C 89% 3.4 mph S5.5 kmh S 8.6 mph13.8 kmh 29.83 in1010.2 mb 0.05 in1.3 mm 0.00 in0.0 mm 0.43 in10.9 mm
08:00 PM 59.5°F15.3°C 56.3°F13.5°C 89% 3.1 mph S5.0 kmh S 6.8 mph10.9 kmh 29.80 in1009.1 mb 0.00 in0.0 mm 0.00 in0.0 mm 0.43 in10.9 mm
08:10 PM 59.5°F15.3°C 56.3°F13.5°C 89% 2.3 mph S3.7 kmh S 7.9 mph12.7 kmh 29.83 in1010.2 mb 0.00 in0.0 mm 0.00 in0.0 mm 0.43 in10.9 mm
08:20 PM 59.4°F15.2°C 56.4°F13.6°C 90% 2.6 mph SE4.2 kmh SE 7.2 mph11.6 kmh 29.83 in1010.2 mb 0.00 in0.0 mm 0.00 in0.0 mm 0.43 in10.9 mm
08:30 PM 59.2°F15.1°C 56.2°F13.4°C 90% 1.5 mph E2.4 kmh E 6.4 mph10.3 kmh 29.83 in1010.2 mb 0.00 in0.0 mm 0.00 in0.0 mm 0.43 in10.9 mm
08:40 PM 58.8°F14.9°C 55.9°F13.3°C 90% 0.6 mph E1.0 kmh E 4.3 mph6.9 kmh 29.83 in1010.2 mb 0.00 in0.0 mm 0.00 in0.0 mm 0.43 in10.9 mm
08:50 PM 58.8°F14.9°C 55.9°F13.3°C 90% Calm Calm -- 29.83 in1010.2 mb 0.00 in0.0 mm 0.00 in0.0 mm 0.43 in10.9 mm
09:00 PM 58.6°F14.8°C 55.7°F13.2°C 90% 0.1 mph N0.2 kmh N 2.1 mph3.4 kmh 29.83 in1010.2 mb 0.00 in0.0 mm 0.00 in0.0 mm 0.43 in10.9 mm
09:10 PM 58.6°F14.8°C 55.7°F13.2°C 90% Calm Calm -- 29.83 in1010.2 mb 0.00 in0.0 mm 0.00 in0.0 mm 0.43 in10.9 mm
09:20 PM 58.8°F14.9°C 56.2°F13.4°C 91% 0.4 mph W0.6 kmh W 3.6 mph5.8 kmh 29.83 in1010.2 mb 0.00 in0.0 mm 0.00 in0.0 mm 0.43 in10.9 mm
09:30 PM 59.4°F15.2°C 57.0°F13.9°C 92% 1.4 mph SSW2.3 kmh SSW 6.8 mph10.9 kmh 29.83 in1010.2 mb 0.00 in0.0 mm 0.00 in0.0 mm 0.43 in10.9 mm
09:40 PM 60.1°F15.6°C 57.7°F14.3°C 92% 3.5 mph W5.6 kmh W 10.0 mph16.1 kmh 29.83 in1010.2 mb 0.00 in0.0 mm 0.00 in0.0 mm 0.43 in10.9 mm
09:50 PM 60.8°F16.0°C 58.8°F14.9°C 93% 5.2 mph W8.4 kmh W 13.6 mph21.9 kmh 29.83 in1010.2 mb 0.00 in0.0 mm 0.00 in0.0 mm 0.43 in10.9 mm
10:00 PM 61.2°F16.2°C 59.4°F15.2°C 94% 4.3 mph W6.9 kmh W 12.9 mph20.8 kmh 29.83 in1010.2 mb 0.00 in0.0 mm 0.00 in0.0 mm 0.43 in10.9 mm
10:10 PM 61.3°F16.3°C 59.6°F15.3°C 94% 4.4 mph W7.1 kmh W 10.7 mph17.2 kmh 29.83 in1010.2 mb 0.00 in0.0 mm 0.00 in0.0 mm 0.43 in10.9 mm
10:20 PM 61.5°F16.4°C 59.8°F15.4°C 94% 4.5 mph W7.2 kmh W 13.6 mph21.9 kmh 29.83 in1010.2 mb 0.00 in0.0 mm 0.00 in0.0 mm 0.43 in10.9 mm
10:30 PM 61.5°F16.4°C 59.8°F15.4°C 94% 4.2 mph WNW6.8 kmh WNW 13.6 mph21.9 kmh 29.80 in1009.1 mb 0.00 in0.0 mm 0.00 in0.0 mm 0.43 in10.9 mm
10:40 PM 61.7°F16.5°C 60.0°F15.6°C 94% 4.3 mph WNW6.9 kmh WNW 11.8 mph19.0 kmh 29.80 in1009.1 mb 0.00 in0.0 mm 0.00 in0.0 mm 0.43 in10.9 mm
10:50 PM 61.7°F16.5°C 60.0°F15.6°C 94% 5.3 mph W8.5 kmh W 14.0 mph22.5 kmh 29.80 in1009.1 mb 0.00 in0.0 mm 0.00 in0.0 mm 0.43 in10.9 mm
11:00 PM 61.7°F16.5°C 60.0°F15.6°C 94% 5.6 mph WNW9.0 kmh WNW 13.6 mph21.9 kmh 29.83 in1010.2 mb 0.00 in0.0 mm 0.00 in0.0 mm 0.37 in9.4 mm
11:10 PM 61.7°F16.5°C 60.0°F15.6°C 94% 5.3 mph W8.5 kmh W 13.6 mph21.9 kmh 29.83 in1010.2 mb 0.00 in0.0 mm 0.00 in0.0 mm 0.37 in9.4 mm
11:20 PM 61.7°F16.5°C 60.0°F15.6°C 94% 5.6 mph WNW9.0 kmh WNW 14.0 mph22.5 kmh 29.83 in1010.2 mb 0.00 in0.0 mm 0.00 in0.0 mm 0.37 in9.4 mm
11:30 PM 61.7°F16.5°C 60.0°F15.6°C 94% 4.7 mph WNW7.6 kmh WNW 12.2 mph19.6 kmh 29.80 in1009.1 mb 0.00 in0.0 mm 0.00 in0.0 mm 0.37 in9.4 mm
11:40 PM 61.7°F16.5°C 60.0°F15.6°C 94% 4.9 mph WNW7.9 kmh WNW 12.9 mph20.8 kmh 29.83 in1010.2 mb 0.00 in0.0 mm 0.00 in0.0 mm 0.37 in9.4 mm
11:50 PM 61.7°F16.5°C 60.3°F15.7°C 95% 4.5 mph WNW7.2 kmh WNW 11.5 mph18.5 kmh 29.83 in1010.2 mb 0.00 in0.0 mm 0.00 in0.0 mm 0.37 in9.4 mm